West Alton, Missouri
Current Conditions -  °F | °C
As of 6:45 PM on Friday 21 Nov 2014 (Local Time) from KALN Reporting Station
Overcast Overcast  
Wind Chill: 32°   Ceiling: 2400
Heat Index: 39°   Visibility: 10mi
Dew Point: 18°   Wind: 12mph
Humidity: 42%   Direction: 120°ESE
Pressure: 30.29"   Gusts: NA
Location:  38.87°N, 90.22°W
Report Text: KALN 220045Z 12010KT 10SM OVC024 04/M08 A3029
Loading
Personal Weather Stations






























Interactive Weather Map New forecast layout! Learn more

10-Day Weather Forecast

Advertisements
Track Severe Weather on mobile